Time;durP1;ratioP1;P1;durP2;ratioP2;P2;SDS_P1;SDS_P2;PMS_P1;PMS_P2;Temp;Humidity;BMP_temperature;BMP_pressure;BME280_temperature;BME280_humidity;BME280_pressure;Samples;Min_cycle;Max_cycle;Signal;HPM_P1;HPM_P2
2022/09/23 00:00:17;;;;;;;5.40;3.40;;;15.60;99.90;;;;;;1038553;28;20025;-73
2022/09/23 00:00:47;;;;;;;4.77;3.77;;;15.60;99.90;;;;;;1039781;28;20534;-73
2022/09/23 00:01:18;;;;;;;4.00;3.53;;;15.60;99.90;;;;;;1038602;28;20026;-73
2022/09/23 00:01:49;;;;;;;3.40;2.80;;;15.60;99.90;;;;;;1039890;28;20017;-73
2022/09/23 00:02:19;;;;;;;3.60;3.30;;;15.60;99.90;;;;;;1037993;28;20022;-74
2022/09/23 00:02:51;;;;;;;3.90;3.27;;;15.60;99.90;;;;;;1034861;28;20037;-74
2022/09/23 00:03:21;;;;;;;3.97;3.13;;;15.60;99.90;;;;;;1039632;28;20044;-73
2022/09/23 00:03:52;;;;;;;3.40;2.97;;;15.60;99.90;;;;;;1038659;28;20079;-73
2022/09/23 00:04:22;;;;;;;4.03;2.90;;;15.60;99.90;;;;;;1039802;28;20029;-73
2022/09/23 00:04:53;;;;;;;4.23;3.47;;;15.60;99.90;;;;;;1038611;28;20068;-73
2022/09/23 00:05:23;;;;;;;3.80;3.13;;;15.60;99.90;;;;;;1038621;28;20026;-74
2022/09/23 00:06:02;;;;;;;4.63;3.27;;;15.60;99.90;;;;;;1043535;28;20027;-73
2022/09/23 00:06:32;;;;;;;3.70;3.25;;;15.60;99.90;;;;;;1042742;28;20028;-73
2022/09/23 00:07:03;;;;;;;4.90;3.47;;;15.60;99.90;;;;;;1039813;28;20116;-73
2022/09/23 00:07:33;;;;;;;4.20;3.17;;;15.60;99.90;;;;;;1038547;28;20040;-73
2022/09/23 00:08:05;;;;;;;4.00;3.30;;;15.60;99.90;;;;;;1038935;28;20021;-74
2022/09/23 00:08:37;;;;;;;3.38;2.97;;;15.60;99.90;;;;;;1039582;28;20025;-73
2022/09/23 00:09:07;;;;;;;7.10;3.50;;;15.60;99.90;;;;;;1038888;28;20025;-73
2022/09/23 00:09:38;;;;;;;3.50;3.10;;;15.60;99.90;;;;;;1039404;28;20022;-73
2022/09/23 00:10:08;;;;;;;4.17;3.40;;;15.60;99.90;;;;;;1038973;28;20581;-73
2022/09/23 00:10:40;;;;;;;4.20;3.10;;;15.60;99.90;;;;;;1038834;28;20028;-73
2022/09/23 00:11:28;;;;;;;3.80;3.08;;;15.60;99.90;;;;;;1039816;28;20024;-73
2022/09/23 00:11:59;;;;;;;3.30;2.97;;;15.60;99.90;;;;;;1034661;28;20029;-73
2022/09/23 00:12:30;;;;;;;4.57;3.40;;;15.60;99.90;;;;;;1035596;28;20042;-73
2022/09/23 00:13:01;;;;;;;3.33;2.90;;;15.60;99.90;;;;;;1037700;28;20018;-73
2022/09/23 00:13:32;;;;;;;4.68;3.45;;;15.60;99.90;;;;;;1039236;28;20006;-73
2022/09/23 00:14:04;;;;;;;5.00;3.58;;;15.60;99.90;;;;;;1038803;28;20009;-73
2022/09/23 00:14:37;;;;;;;4.32;3.00;;;15.60;99.90;;;;;;1039215;28;20021;-73
2022/09/23 00:15:10;;;;;;;3.33;3.03;;;15.60;99.90;;;;;;1039624;28;20357;-73
2022/09/23 00:15:40;;;;;;;4.93;3.85;;;15.60;99.90;;;;;;1038795;28;20095;-73
2022/09/23 00:16:14;;;;;;;3.77;3.37;;;15.60;99.90;;;;;;1039404;28;20040;-73
2022/09/23 00:16:44;;;;;;;6.82;4.03;;;15.60;99.90;;;;;;1038776;28;20013;-73
2022/09/23 00:17:15;;;;;;;4.90;3.20;;;15.50;99.90;;;;;;1039378;28;20013;-73
2022/09/23 00:17:46;;;;;;;5.40;3.70;;;15.50;99.90;;;;;;1039884;28;20488;-73
2022/09/23 00:18:17;;;;;;;4.75;3.75;;;15.50;99.90;;;;;;1039110;28;20049;-73
2022/09/23 00:18:49;;;;;;;4.60;3.23;;;15.50;99.90;;;;;;1040323;28;20092;-74
2022/09/23 00:19:20;;;;;;;3.47;3.15;;;15.50;99.90;;;;;;1038843;28;20543;-73
2022/09/23 00:19:51;;;;;;;4.38;2.83;;;15.50;99.90;;;;;;1038832;28;20021;-73
2022/09/23 00:20:21;;;;;;;3.63;3.27;;;15.50;99.90;;;;;;1039679;28;20104;-73
2022/09/23 00:20:52;;;;;;;4.50;2.93;;;15.50;99.90;;;;;;1038603;28;20014;-73
2022/09/23 00:21:24;;;;;;;5.60;3.60;;;15.50;99.90;;;;;;1037401;28;20014;-73
2022/09/23 00:21:55;;;;;;;4.00;3.15;;;15.50;99.90;;;;;;1038822;28;20026;-73
2022/09/23 00:22:26;;;;;;;2.63;2.42;;;15.50;99.90;;;;;;1033382;28;20018;-73
2022/09/23 00:22:56;;;;;;;3.73;2.70;;;15.50;99.90;;;;;;1032122;28;20109;-73
2022/09/23 00:23:27;;;;;;;3.77;2.80;;;15.50;99.90;;;;;;1035006;28;20014;-73
2022/09/23 00:23:57;;;;;;;3.87;2.80;;;15.50;99.90;;;;;;1039597;28;20009;-73
2022/09/23 00:24:31;;;;;;;4.50;3.37;;;15.50;99.90;;;;;;1042866;28;20017;-73
2022/09/23 00:25:06;;;;;;;3.30;3.00;;;15.50;99.90;;;;;;1043034;28;20104;-73
2022/09/23 00:25:37;;;;;;;3.45;2.50;;;15.50;99.90;;;;;;1043682;28;20389;-73
2022/09/23 00:26:09;;;;;;;4.07;3.00;;;15.50;99.90;;;;;;1038931;28;20777;-73
2022/09/23 00:26:40;;;;;;;3.75;3.05;;;15.50;99.90;;;;;;1039630;28;20496;-73
2022/09/23 00:27:11;;;;;;;4.63;3.45;;;15.50;99.90;;;;;;1038743;28;20561;-73
2022/09/23 00:27:42;;;;;;;3.00;2.70;;;15.50;99.90;;;;;;1038918;28;20010;-73
2022/09/23 00:28:12;;;;;;;6.23;3.27;;;15.50;99.90;;;;;;1039615;28;20017;-73
2022/09/23 00:28:44;;;;;;;4.07;2.87;;;15.50;99.90;;;;;;1036429;28;20041;-72
2022/09/23 00:29:15;;;;;;;3.00;2.70;;;15.50;99.90;;;;;;1035427;28;20025;-73
2022/09/23 00:29:46;;;;;;;4.63;3.20;;;15.50;99.90;;;;;;1031735;28;20034;-73
2022/09/23 00:30:17;;;;;;;4.05;3.20;;;15.50;99.90;;;;;;1034970;28;20039;-72
2022/09/23 00:30:48;;;;;;;3.60;3.20;;;15.50;99.90;;;;;;1035302;28;20033;-72
2022/09/23 00:31:23;;;;;;;5.40;2.93;;;15.50;99.90;;;;;;1034852;28;20010;-72
2022/09/23 00:31:54;;;;;;;4.38;3.05;;;15.50;99.90;;;;;;1031386;28;20072;-73
2022/09/23 00:32:25;;;;;;;3.10;2.80;;;15.50;99.90;;;;;;1031074;28;20126;-73
2022/09/23 00:32:55;;;;;;;3.65;2.92;;;15.50;99.90;;;;;;1031318;28;20537;-74
2022/09/23 00:33:26;;;;;;;3.67;2.80;;;15.50;99.90;;;;;;1037799;28;20026;-74
2022/09/23 00:34:00;;;;;;;4.03;3.00;;;15.50;99.90;;;;;;1035126;28;20401;-73
2022/09/23 00:34:30;;;;;;;6.63;3.05;;;15.50;99.90;;;;;;1036333;28;20093;-73
2022/09/23 00:35:02;;;;;;;4.10;3.50;;;15.50;99.90;;;;;;1037631;28;20033;-74
2022/09/23 00:35:33;;;;;;;4.43;3.00;;;15.40;99.90;;;;;;1036358;28;20026;-73
2022/09/23 00:36:06;;;;;;;3.77;2.77;;;15.40;99.90;;;;;;1040326;28;20021;-74
2022/09/23 00:36:37;;;;;;;4.30;3.13;;;15.40;99.90;;;;;;1039366;28;20024;-73
2022/09/23 00:37:08;;;;;;;3.65;2.88;;;15.40;99.90;;;;;;1040300;28;20734;-74
2022/09/23 00:37:38;;;;;;;4.00;3.10;;;15.40;99.90;;;;;;1039590;28;20790;-73
2022/09/23 00:38:09;;;;;;;3.67;3.03;;;15.40;99.90;;;;;;1039585;28;20017;-73
2022/09/23 00:38:39;;;;;;;3.60;2.77;;;15.40;99.90;;;;;;1040399;28;20517;-74
2022/09/23 00:39:10;;;;;;;6.23;3.37;;;15.40;99.90;;;;;;1039698;28;20091;-72
2022/09/23 00:39:40;;;;;;;5.20;3.37;;;15.40;99.90;;;;;;1040796;28;20087;-74
2022/09/23 00:40:11;;;;;;;3.10;2.77;;;15.40;99.90;;;;;;1039968;28;20093;-73
2022/09/23 00:40:45;;;;;;;4.63;2.90;;;15.40;99.90;;;;;;1036274;28;20018;-74
2022/09/23 00:41:17;;;;;;;3.75;2.55;;;15.40;99.90;;;;;;1035927;28;20032;-73
2022/09/23 00:41:47;;;;;;;3.53;3.17;;;15.40;99.90;;;;;;1037107;28;20105;-73
2022/09/23 00:42:20;;;;;;;4.53;3.00;;;15.40;99.90;;;;;;1036421;28;20018;-72
2022/09/23 00:42:50;;;;;;;3.10;2.35;;;15.40;99.90;;;;;;1039426;28;20319;-74
2022/09/23 00:43:52;;;;;;;3.50;3.20;;;15.40;99.90;;;;;;1038679;28;20059;-74
2022/09/23 00:44:58;;;;;;;4.60;2.72;;;15.40;99.90;;;;;;1035428;28;20025;-73
2022/09/23 00:45:29;;;;;;;;;;;15.40;99.90;;;;;;1031432;28;20478;-74
2022/09/23 00:46:00;;;;;;;3.63;2.88;;;15.40;99.90;;;;;;1027318;28;19917;-73
2022/09/23 00:46:37;;;;;;;5.70;3.43;;;15.40;99.90;;;;;;1027878;28;20117;-73
2022/09/23 00:47:34;;;;;;;3.15;2.83;;;15.40;99.90;;;;;;1030932;28;20030;-73
2022/09/23 00:48:05;;;;;;;3.80;2.83;;;15.40;99.90;;;;;;1032543;28;20034;-73
2022/09/23 00:48:38;;;;;;;3.60;2.60;;;15.40;99.90;;;;;;1032972;28;20014;-73
2022/09/23 00:49:21;;;;;;;4.68;3.20;;;15.40;99.90;;;;;;1036452;28;20108;-73
2022/09/23 00:50:23;;;;;;;4.25;3.28;;;15.40;99.90;;;;;;1035064;28;20022;-74
2022/09/23 00:50:54;;;;;;;5.63;3.40;;;15.40;99.90;;;;;;1031447;28;20034;-74
2022/09/23 00:51:30;;;;;;;5.20;2.88;;;15.40;99.90;;;;;;1031947;28;20026;-73
2022/09/23 00:52:07;;;;;;;3.85;3.00;;;15.40;99.90;;;;;;1037457;28;20030;-74
2022/09/23 00:52:38;;;;;;;3.47;2.88;;;15.40;99.90;;;;;;1039331;28;20029;-73
2022/09/23 00:53:12;;;;;;;3.80;3.10;;;15.40;99.90;;;;;;1040357;28;20036;-71
2022/09/23 00:53:46;;;;;;;3.50;2.75;;;15.40;99.90;;;;;;1040406;28;20029;-74
2022/09/23 00:54:17;;;;;;;5.10;3.33;;;15.40;99.90;;;;;;1044469;28;20063;-74
2022/09/23 00:54:54;;;;;;;6.00;3.13;;;15.40;99.90;;;;;;1043491;28;20396;-72
2022/09/23 00:55:31;;;;;;;3.72;3.03;;;15.40;99.90;;;;;;1040536;28;20033;-74
2022/09/23 00:56:06;;;;;;;3.65;2.83;;;15.40;99.90;;;;;;1036217;28;20026;-74
2022/09/23 00:56:38;;;;;;;5.22;2.72;;;15.40;99.90;;;;;;1035569;28;20018;-74
2022/09/23 00:57:10;;;;;;;3.50;2.67;;;15.40;99.90;;;;;;1035433;28;20021;-72
2022/09/23 00:57:43;;;;;;;3.17;2.85;;;15.40;99.90;;;;;;1035160;28;20109;-73
2022/09/23 00:58:17;;;;;;;4.28;2.50;;;15.40;99.90;;;;;;1036230;28;20026;-74
2022/09/23 00:58:50;;;;;;;3.67;3.28;;;15.40;99.90;;;;;;1037584;28;20014;-74
2022/09/23 00:59:23;;;;;;;3.05;2.75;;;15.40;99.90;;;;;;1040298;28;20076;-74
2022/09/23 00:59:53;;;;;;;3.10;2.80;;;15.40;99.90;;;;;;1039195;28;20488;-74
2022/09/23 01:00:24;;;;;;;4.27;3.13;;;15.40;99.90;;;;;;1039603;28;20018;-74
2022/09/23 01:00:58;;;;;;;4.67;3.20;;;15.40;99.90;;;;;;1040158;28;20460;-74
2022/09/23 01:01:29;;;;;;;4.03;3.25;;;15.40;99.90;;;;;;1040168;28;20086;-74
2022/09/23 01:02:01;;;;;;;4.67;3.10;;;15.40;99.90;;;;;;1040389;28;20039;-74
2022/09/23 01:02:32;;;;;;;3.38;2.92;;;15.40;99.90;;;;;;1039593;28;20108;-74
2022/09/23 01:03:04;;;;;;;4.03;2.78;;;15.30;99.90;;;;;;1039210;28;20045;-74
2022/09/23 01:03:35;;;;;;;5.18;3.08;;;15.30;99.90;;;;;;1040626;28;20029;-74
2022/09/23 01:04:07;;;;;;;3.50;2.70;;;15.30;99.90;;;;;;1039241;28;20033;-74
2022/09/23 01:04:38;;;;;;;4.18;3.30;;;15.30;99.90;;;;;;1040436;28;20046;-74
2022/09/23 01:05:08;;;;;;;3.88;3.03;;;15.30;99.90;;;;;;1039559;28;20041;-74
2022/09/23 01:05:40;;;;;;;4.67;3.33;;;15.30;99.90;;;;;;1039753;28;20029;-74
2022/09/23 01:06:11;;;;;;;3.50;2.80;;;15.30;99.90;;;;;;1037496;28;20026;-74
2022/09/23 01:06:42;;;;;;;4.72;3.35;;;15.30;99.90;;;;;;1039743;28;20017;-74
2022/09/23 01:07:13;;;;;;;3.73;2.73;;;15.30;99.90;;;;;;1035947;28;20113;-74
2022/09/23 01:07:44;;;;;;;3.83;3.07;;;15.30;99.90;;;;;;1036969;28;20882;-74
2022/09/23 01:08:15;;;;;;;4.00;3.50;;;15.30;99.90;;;;;;1039300;28;20543;-74
2022/09/23 01:08:46;;;;;;;4.40;3.10;;;15.30;99.90;;;;;;1037093;28;20536;-74
2022/09/23 01:09:18;;;;;;;5.10;2.88;;;15.30;99.90;;;;;;1031767;28;20151;-75
2022/09/23 01:09:49;;;;;;;3.53;3.08;;;15.30;99.90;;;;;;1036625;28;20021;-74
2022/09/23 01:10:21;;;;;;;6.78;3.33;;;15.30;99.90;;;;;;1039643;28;20025;-74
2022/09/23 01:11:15;;;;;;;3.10;2.80;;;15.30;99.90;;;;;;1039220;28;20018;-74
2022/09/23 01:12:22;;;;;;;4.80;3.40;;;15.20;99.90;;;;;;1031549;28;20022;-74
2022/09/23 01:13:26;;;;;;;4.00;3.42;;;15.20;99.90;;;;;;1034635;28;20022;-74
2022/09/23 01:14:15;;;;;;;3.75;3.08;;;15.20;99.90;;;;;;1040423;28;20022;-74
2022/09/23 01:15:01;;;;;;;4.05;3.10;;;15.20;99.90;;;;;;1039816;28;20021;-74
2022/09/23 01:15:47;;;;;;;4.50;3.17;;;15.20;99.90;;;;;;1040080;28;20372;-74
2022/09/23 01:16:46;;;;;;;4.05;3.13;;;15.20;99.90;;;;;;1040167;28;20025;-74
2022/09/23 01:18:12;;;;;;;4.95;3.35;;;15.20;99.90;;;;;;1039354;28;20036;-74
2022/09/23 01:18:56;;;;;;;3.40;3.10;;;15.20;99.90;;;;;;1031187;28;20026;-74
2022/09/23 01:19:35;;;;;;;3.90;3.35;;;15.20;99.90;;;;;;1034080;28;20031;-74
2022/09/23 01:20:33;;;;;;;5.80;3.40;;;15.20;99.90;;;;;;1031373;28;20027;-75
2022/09/23 01:21:06;;;;;;;3.53;2.90;;;15.20;99.90;;;;;;1032157;28;20015;-74
2022/09/23 01:21:56;;;;;;;4.18;3.17;;;15.20;99.90;;;;;;1040414;28;20294;-74
2022/09/23 01:23:11;;;;;;;5.97;3.65;;;15.20;99.90;;;;;;1038472;28;20021;-73
2022/09/23 01:24:06;;;;;;;4.65;2.95;;;15.20;99.90;;;;;;1031170;28;20074;-73
2022/09/23 01:24:44;;;;;;;3.25;2.92;;;15.20;99.90;;;;;;1031343;28;20041;-75
2022/09/23 01:25:30;;;;;;;3.53;2.95;;;15.20;99.90;;;;;;1031462;28;20736;-73
2022/09/23 01:26:38;;;;;;;3.70;3.20;;;15.20;99.90;;;;;;1031115;28;20041;-73
2022/09/23 01:27:26;;;;;;;3.75;3.15;;;15.10;99.90;;;;;;1031944;28;20026;-73
2022/09/23 01:28:21;;;;;;;4.85;2.83;;;15.20;99.90;;;;;;1034482;28;20029;-73
2022/09/23 01:29:22;;;;;;;3.53;3.20;;;15.20;99.90;;;;;;1033847;28;20057;-73
2022/09/23 01:30:20;;;;;;;3.47;2.83;;;15.20;99.90;;;;;;1037280;28;20131;-73
2022/09/23 01:31:05;;;;;;;3.75;2.90;;;15.20;99.90;;;;;;1040330;28;20516;-73
2022/09/23 01:31:42;;;;;;;3.78;3.10;;;15.20;99.90;;;;;;1038923;28;20580;-74
2022/09/23 01:32:58;;;;;;;5.35;3.40;;;15.20;99.90;;;;;;1040044;28;20022;-73
2022/09/23 01:33:49;;;;;;;4.03;3.15;;;15.20;99.90;;;;;;1031438;28;20042;-73
2022/09/23 01:34:33;;;;;;;3.45;2.90;;;15.20;99.90;;;;;;1035041;28;20400;-73
2022/09/23 01:35:15;;;;;;;5.03;3.60;;;15.20;99.90;;;;;;1028541;28;20031;-73
2022/09/23 01:36:05;;;;;;;4.13;3.28;;;15.20;99.90;;;;;;1026093;28;20109;-73
2022/09/23 01:36:54;;;;;;;4.22;3.05;;;15.20;99.90;;;;;;1031085;28;20596;-74
2022/09/23 01:37:44;;;;;;;7.40;3.40;;;15.20;99.90;;;;;;1032800;28;20158;-74
2022/09/23 01:38:20;;;;;;;3.38;3.08;;;15.20;99.90;;;;;;1035114;28;20022;-73
2022/09/23 01:39:05;;;;;;;4.00;3.60;;;15.20;99.90;;;;;;1035530;28;20612;-73
2022/09/23 01:40:00;;;;;;;4.45;3.20;;;15.20;99.90;;;;;;1038497;28;20095;-74
2022/09/23 01:40:54;;;;;;;4.93;3.50;;;15.10;99.90;;;;;;1032863;28;20018;-74
2022/09/23 01:41:33;;;;;;;3.88;2.85;;;15.10;99.90;;;;;;1036023;28;20026;-74
2022/09/23 01:42:21;;;;;;;3.92;3.10;;;15.10;99.90;;;;;;1031305;28;20019;-73
2022/09/23 01:43:02;;;;;;;5.93;3.90;;;15.10;99.90;;;;;;1031819;28;20105;-73
2022/09/23 01:43:48;;;;;;;3.75;3.17;;;15.10;99.90;;;;;;1033402;28;20105;-72
2022/09/23 01:44:32;;;;;;;4.15;3.33;;;15.10;99.90;;;;;;1034537;28;20037;-73
2022/09/23 01:45:43;;;;;;;4.60;3.42;;;15.10;99.90;;;;;;1035662;28;20116;-72
2022/09/23 01:46:26;;;;;;;5.95;3.28;;;15.10;99.90;;;;;;1035344;28;20124;-73
2022/09/23 01:47:13;;;;;;;4.38;3.13;;;15.10;99.90;;;;;;1038351;28;20072;-73
2022/09/23 01:47:50;;;;;;;5.28;3.60;;;15.10;99.90;;;;;;1037796;28;20034;-73
2022/09/23 01:48:41;;;;;;;4.40;3.40;;;15.00;99.90;;;;;;1039405;28;20052;-73
2022/09/23 01:49:21;;;;;;;4.07;3.05;;;15.00;99.90;;;;;;1040165;28;20029;-74
2022/09/23 01:49:57;;;;;;;4.22;3.28;;;15.00;99.90;;;;;;1031089;28;20093;-74
2022/09/23 01:51:39;;;;;;;4.90;3.53;;;15.00;99.90;;;;;;1031095;28;20113;-74
2022/09/23 01:52:21;;;;;;;3.72;3.33;;;15.00;99.90;;;;;;1031449;28;20430;-74
2022/09/23 01:53:01;;;;;;;4.30;3.50;;;15.00;99.90;;;;;;1033820;28;20045;-73
2022/09/23 01:53:59;;;;;;;4.78;3.40;;;15.00;99.90;;;;;;1035618;28;20054;-73
2022/09/23 01:54:37;;;;;;;4.15;3.53;;;15.00;99.90;;;;;;1036714;28;20685;-73
2022/09/23 01:55:19;;;;;;;3.58;3.25;;;15.00;99.90;;;;;;1038665;28;20032;-73
2022/09/23 01:55:57;;;;;;;3.50;3.05;;;15.00;99.90;;;;;;1033775;28;20686;-74
2022/09/23 01:56:35;;;;;;;4.38;3.38;;;15.00;99.90;;;;;;1031243;28;20022;-74
2022/09/23 01:57:20;;;;;;;4.00;3.25;;;15.00;99.90;;;;;;1035504;28;20056;-74
2022/09/23 01:58:08;;;;;;;5.90;3.72;;;15.00;99.90;;;;;;1036128;28;20017;-73
2022/09/23 01:58:45;;;;;;;4.82;3.35;;;15.00;99.90;;;;;;1039839;28;20029;-74
2022/09/23 01:59:33;;;;;;;4.88;3.25;;;15.00;99.90;;;;;;1039580;28;20022;-74
2022/09/23 02:00:10;;;;;;;4.65;3.75;;;15.00;99.90;;;;;;1031408;28;20126;-73
2022/09/23 02:00:49;;;;;;;3.72;3.42;;;15.00;99.90;;;;;;1031517;28;20085;-73
2022/09/23 02:01:27;;;;;;;;;;;15.00;99.90;;;;;;1035036;28;20026;-73
2022/09/23 02:02:09;;;;;;;3.88;3.10;;;15.00;99.90;;;;;;1043085;28;20363;-74
2022/09/23 02:02:56;;;;;;;6.25;3.60;;;15.00;99.90;;;;;;1043554;28;20037;-73
2022/09/23 02:03:32;;;;;;;4.65;3.13;;;15.00;99.90;;;;;;1036095;28;20026;-74
2022/09/23 02:04:08;;;;;;;4.03;3.10;;;14.90;99.90;;;;;;1031580;28;20397;-73
2022/09/23 02:04:50;;;;;;;4.45;3.38;;;15.00;99.90;;;;;;1032509;28;20089;-75
2022/09/23 02:05:33;;;;;;;3.85;3.20;;;15.00;99.90;;;;;;1039169;28;20049;-73
2022/09/23 02:06:13;;;;;;;3.70;2.90;;;15.00;99.90;;;;;;1040044;28;20036;-73
2022/09/23 02:06:54;;;;;;;3.85;3.22;;;15.00;99.90;;;;;;1039289;28;20056;-73
2022/09/23 02:07:38;;;;;;;4.28;3.67;;;15.00;99.90;;;;;;1036182;28;20018;-74
2022/09/23 02:08:16;;;;;;;3.90;3.15;;;15.00;99.90;;;;;;1040589;28;20029;-74
2022/09/23 02:09:06;;;;;;;4.45;3.53;;;15.00;99.90;;;;;;1039885;28;20133;-73
2022/09/23 02:09:43;;;;;;;3.47;3.17;;;15.00;99.90;;;;;;1039139;28;20780;-74
2022/09/23 02:10:30;;;;;;;3.80;3.40;;;15.00;99.90;;;;;;1032666;28;20017;-73
2022/09/23 02:11:07;;;;;;;4.65;3.53;;;15.00;99.90;;;;;;1034942;28;20620;-74
2022/09/23 02:11:44;;;;;;;3.17;2.80;;;15.00;99.90;;;;;;1038023;28;20022;-73
2022/09/23 02:12:17;;;;;;;3.70;3.05;;;15.00;99.90;;;;;;1039248;28;20049;-75
2022/09/23 02:12:50;;;;;;;4.03;3.53;;;15.00;99.90;;;;;;1039770;28;20124;-74
2022/09/23 02:13:31;;;;;;;3.35;3.05;;;15.00;99.90;;;;;;1038915;28;20057;-73
2022/09/23 02:14:14;;;;;;;4.68;3.50;;;15.00;99.90;;;;;;1040493;28;20536;-74
2022/09/23 02:14:50;;;;;;;5.43;3.17;;;15.00;99.90;;;;;;1039040;28;20041;-74
2022/09/23 02:15:27;;;;;;;4.18;3.63;;;15.00;99.90;;;;;;1039974;28;20021;-74
2022/09/23 02:16:02;;;;;;;4.28;3.42;;;15.00;99.90;;;;;;1039186;28;20380;-74
2022/09/23 02:16:38;;;;;;;3.28;2.97;;;15.00;99.90;;;;;;1039618;28;20021;-74
2022/09/23 02:17:13;;;;;;;4.20;3.08;;;15.10;99.90;;;;;;1039101;28;20072;-74
2022/09/23 02:17:53;;;;;;;4.47;3.42;;;15.10;99.90;;;;;;1039360;28;20006;-74
2022/09/23 02:18:28;;;;;;;4.32;2.80;;;15.10;99.90;;;;;;1039141;28;20013;-74
2022/09/23 02:19:07;;;;;;;5.03;3.47;;;15.10;99.90;;;;;;1037102;28;20066;-74
2022/09/23 02:19:51;;;;;;;5.20;3.70;;;15.10;99.90;;;;;;1039241;28;20447;-73
2022/09/23 02:20:27;;;;;;;3.95;3.20;;;15.10;99.90;;;;;;1035523;28;20101;-73
2022/09/23 02:21:04;;;;;;;4.50;3.42;;;15.10;99.90;;;;;;1035110;28;20069;-74
2022/09/23 02:21:39;;;;;;;4.10;3.33;;;15.00;99.90;;;;;;1031466;28;20018;-74
2022/09/23 02:22:30;;;;;;;3.38;2.88;;;15.10;99.90;;;;;;1036333;28;20018;-74
2022/09/23 02:23:11;;;;;;;4.20;3.38;;;15.00;99.90;;;;;;1035724;28;20407;-74
2022/09/23 02:23:47;;;;;;;3.60;3.22;;;15.00;99.90;;;;;;1038279;28;20457;-73
2022/09/23 02:24:21;;;;;;;4.70;3.67;;;15.00;99.90;;;;;;1035594;28;20429;-74
2022/09/23 02:24:53;;;;;;;4.18;3.17;;;15.00;99.90;;;;;;1034914;28;20010;-73
2022/09/23 02:25:34;;;;;;;4.05;3.03;;;15.00;99.90;;;;;;1038172;28;20033;-73
2022/09/23 02:26:25;;;;;;;4.97;3.47;;;15.00;99.90;;;;;;1031200;28;20017;-73
2022/09/23 02:27:17;;;;;;;4.38;3.30;;;15.00;99.90;;;;;;1035745;28;20025;-73
2022/09/23 02:28:18;;;;;;;3.78;3.38;;;15.00;99.90;;;;;;1036717;28;20543;-73
2022/09/23 02:29:18;;;;;;;3.88;3.47;;;15.00;99.90;;;;;;1042438;28;20017;-75
2022/09/23 02:30:04;;;;;;;5.03;3.30;;;15.00;99.90;;;;;;1040299;28;20014;-74
2022/09/23 02:30:47;;;;;;;5.65;3.20;;;15.00;99.90;;;;;;1038832;28;20037;-74
2022/09/23 02:31:37;;;;;;;5.25;4.20;;;15.00;99.90;;;;;;1039826;28;20044;-73
2022/09/23 02:32:11;;;;;;;5.65;3.28;;;15.00;99.90;;;;;;1043087;28;20076;-74
2022/09/23 02:33:18;;;;;;;3.75;3.13;;;15.00;99.90;;;;;;1039045;28;20064;-74
2022/09/23 02:34:28;;;;;;;5.18;4.22;;;15.00;99.90;;;;;;1039597;28;20132;-74
2022/09/23 02:35:23;;;;;;;4.60;3.47;;;15.00;99.90;;;;;;1044305;28;20538;-74
2022/09/23 02:36:00;;;;;;;3.63;2.90;;;15.00;99.90;;;;;;1034948;28;20018;-73
2022/09/23 02:36:36;;;;;;;4.40;3.25;;;15.00;99.90;;;;;;1035437;28;20089;-73
2022/09/23 02:37:07;;;;;;;4.63;3.40;;;15.00;99.90;;;;;;1034211;28;20030;-74
2022/09/23 02:37:52;;;;;;;3.27;2.97;;;15.00;99.90;;;;;;1040439;28;20025;-74
2022/09/23 02:38:42;;;;;;;5.20;3.47;;;14.90;99.90;;;;;;1039149;28;20064;-73
2022/09/23 02:39:13;;;;;;;3.97;3.28;;;14.90;99.90;;;;;;1035145;28;20564;-72
2022/09/23 02:40:04;;;;;;;4.53;3.28;;;14.90;99.90;;;;;;1034732;28;20026;-73
2022/09/23 02:40:37;;;;;;;3.92;3.53;;;14.90;99.90;;;;;;1037046;28;20487;-73
2022/09/23 02:41:41;;;;;;;6.82;3.90;;;14.90;99.90;;;;;;1035850;28;20101;-73
2022/09/23 02:42:19;;;;;;;5.13;3.90;;;14.90;99.90;;;;;;1036003;28;20022;-73
2022/09/23 02:43:07;;;;;;;3.75;3.30;;;14.90;99.90;;;;;;1040023;28;20053;-73
2022/09/23 02:43:56;;;;;;;4.85;3.33;;;14.90;99.90;;;;;;1038968;28;20530;-73
2022/09/23 02:44:27;;;;;;;3.67;2.75;;;14.90;99.90;;;;;;1035006;28;20021;-73
2022/09/23 02:44:58;;;;;;;5.13;3.28;;;14.90;99.90;;;;;;1034707;28;20101;-74
2022/09/23 02:45:29;;;;;;;6.33;3.53;;;14.90;99.90;;;;;;1036097;28;20474;-73
2022/09/23 02:46:00;;;;;;;4.05;3.08;;;14.90;99.90;;;;;;1037441;28;20088;-73
2022/09/23 02:46:32;;;;;;;3.78;3.13;;;14.90;99.90;;;;;;1035192;28;20708;-74
2022/09/23 02:47:02;;;;;;;4.18;3.35;;;14.90;99.90;;;;;;1035007;28;20026;-73
2022/09/23 02:47:36;;;;;;;4.93;3.77;;;14.90;99.90;;;;;;1037359;28;20394;-73
2022/09/23 02:48:21;;;;;;;5.13;3.45;;;14.90;99.90;;;;;;1035816;28;20030;-73
2022/09/23 02:49:09;;;;;;;5.20;3.72;;;14.90;99.90;;;;;;1035175;28;20026;-73
2022/09/23 02:49:40;;;;;;;3.78;3.22;;;14.90;99.90;;;;;;1035318;28;20080;-73
2022/09/23 02:50:11;;;;;;;5.37;3.30;;;14.90;99.90;;;;;;1035290;28;20034;-74
2022/09/23 02:50:41;;;;;;;3.67;2.93;;;14.90;99.90;;;;;;1036638;28;20049;-74
2022/09/23 02:51:12;;;;;;;5.83;3.43;;;14.90;99.90;;;;;;1035340;28;20056;-73
2022/09/23 02:51:44;;;;;;;4.10;3.33;;;14.90;99.90;;;;;;1035397;28;20048;-74
2022/09/23 02:52:16;;;;;;;3.55;3.25;;;14.90;99.90;;;;;;1035789;28;20106;-74
2022/09/23 02:52:48;;;;;;;3.72;3.33;;;14.90;99.90;;;;;;1035976;28;20496;-74
2022/09/23 02:53:21;;;;;;;3.95;3.50;;;14.90;99.90;;;;;;1035444;28;20039;-74
2022/09/23 02:53:55;;;;;;;5.65;3.30;;;15.00;99.90;;;;;;1034899;28;20570;-74
2022/09/23 02:54:27;;;;;;;3.88;3.40;;;15.00;99.90;;;;;;1036332;28;20017;-74
2022/09/23 02:54:59;;;;;;;5.30;3.70;;;15.00;99.90;;;;;;1035031;28;20045;-74
2022/09/23 02:55:31;;;;;;;4.97;3.50;;;15.00;99.90;;;;;;1034660;28;20010;-74
2022/09/23 02:56:12;;;;;;;5.25;3.53;;;15.00;99.90;;;;;;1035262;28;20025;-74
2022/09/23 02:56:42;;;;;;;4.72;3.25;;;15.00;99.90;;;;;;1036273;28;20021;-74
2022/09/23 02:57:13;;;;;;;4.67;3.53;;;15.00;99.90;;;;;;1039605;28;20030;-73
2022/09/23 02:57:44;;;;;;;3.93;3.10;;;15.00;99.90;;;;;;1041355;28;20010;-74
2022/09/23 02:58:15;;;;;;;4.47;3.53;;;15.00;99.90;;;;;;1043338;28;20041;-74
2022/09/23 02:58:48;;;;;;;4.53;3.47;;;15.00;99.90;;;;;;1039321;28;20119;-74
2022/09/23 02:59:21;;;;;;;3.95;3.50;;;15.00;99.90;;;;;;1038392;28;20291;-74
2022/09/23 02:59:52;;;;;;;4.32;3.08;;;15.00;99.90;;;;;;1035628;28;20011;-74
2022/09/23 03:00:22;;;;;;;5.03;3.43;;;15.00;99.90;;;;;;1030902;28;20037;-73
2022/09/23 03:01:03;;;;;;;4.57;3.40;;;15.00;99.90;;;;;;1032274;28;20133;-72
2022/09/23 03:01:46;;;;;;;6.60;3.83;;;15.00;99.90;;;;;;1031152;28;20139;-74
2022/09/23 03:02:49;;;;;;;4.53;3.25;;;15.00;99.90;;;;;;1031916;28;20117;-74
2022/09/23 03:03:49;;;;;;;4.25;3.22;;;15.00;99.90;;;;;;1030897;28;20025;-74
2022/09/23 03:04:49;;;;;;;4.93;3.30;;;15.00;99.90;;;;;;1027228;28;20043;-74
2022/09/23 03:05:33;;;;;;;4.43;3.47;;;15.00;99.90;;;;;;1030660;28;20027;-73
2022/09/23 03:06:31;;;;;;;3.80;3.20;;;14.90;99.90;;;;;;1031321;28;20026;-73
2022/09/23 03:07:13;;;;;;;5.07;3.35;;;14.90;99.90;;;;;;1034545;28;20022;-73
2022/09/23 03:07:51;;;;;;;4.43;3.58;;;14.90;99.90;;;;;;1034757;28;20113;-73
2022/09/23 03:08:35;;;;;;;4.22;3.58;;;14.90;99.90;;;;;;1030903;28;20014;-73
2022/09/23 03:09:20;;;;;;;4.35;3.40;;;14.90;99.90;;;;;;1035960;28;20024;-73
2022/09/23 03:09:56;;;;;;;3.97;3.22;;;14.90;99.90;;;;;;1033782;28;20022;-74
2022/09/23 03:11:12;;;;;;;3.97;3.45;;;14.90;99.90;;;;;;1035472;28;20423;-71
2022/09/23 03:11:49;;;;;;;4.10;3.40;;;14.90;99.90;;;;;;1026248;28;20022;-73
2022/09/23 03:12:46;;;;;;;4.28;3.60;;;14.90;99.90;;;;;;1022429;29;20015;-74
2022/09/23 03:13:39;;;;;;;7.40;3.80;;;14.90;99.90;;;;;;1019254;29;20067;-74
2022/09/23 03:14:29;;;;;;;5.32;3.65;;;14.90;99.90;;;;;;1026189;28;20081;-73
2022/09/23 03:15:04;;;;;;;4.70;3.50;;;14.80;99.90;;;;;;1026526;28;20026;-74
2022/09/23 03:15:51;;;;;;;4.80;3.53;;;14.80;99.90;;;;;;1023276;29;20119;-74
2022/09/23 03:16:38;;;;;;;3.58;3.28;;;14.80;99.90;;;;;;1022504;29;20501;-74
2022/09/23 03:17:33;;;;;;;4.30;3.58;;;14.80;99.90;;;;;;1023358;28;20027;-74
2022/09/23 03:18:20;;;;;;;4.43;3.28;;;14.80;99.90;;;;;;1031777;28;20015;-74
2022/09/23 03:18:54;;;;;;;3.67;3.03;;;14.80;99.90;;;;;;1034689;28;20529;-73
2022/09/23 03:19:33;;;;;;;5.85;3.95;;;14.80;99.90;;;;;;1035995;28;20014;-74
2022/09/23 03:20:14;;;;;;;4.95;3.88;;;14.80;99.90;;;;;;1035348;28;20025;-73
2022/09/23 03:21:05;;;;;;;3.90;3.15;;;14.80;99.90;;;;;;1035767;28;20010;-73
2022/09/23 03:21:45;;;;;;;4.93;3.47;;;14.80;99.90;;;;;;1034298;28;20021;-73
2022/09/23 03:22:21;;;;;;;4.05;3.65;;;14.80;99.90;;;;;;1035818;28;20152;-73
2022/09/23 03:22:58;;;;;;;4.30;3.70;;;14.80;99.90;;;;;;1030372;28;20015;-73
2022/09/23 03:23:34;;;;;;;3.95;3.10;;;14.80;99.90;;;;;;1028047;28;20026;-74
2022/09/23 03:24:07;;;;;;;4.40;3.58;;;14.80;99.90;;;;;;1026722;28;20109;-74
2022/09/23 03:24:43;;;;;;;4.50;3.80;;;14.80;99.90;;;;;;1029724;28;20058;-72